Time;durP1;ratioP1;P1;durP2;ratioP2;P2;SDS_P1;SDS_P2;PMS_P1;PMS_P2;Temp;Humidity;BMP_temperature;BMP_pressure;BME280_temperature;BME280_humidity;BME280_pressure;Samples;Min_cycle;Max_cycle;Signal;HPM_P1;HPM_P2
2022/04/19 00:01:10;;;;;;;;;;;6.80;99.90;;;;;;5069636;28;19935;-49
2022/04/19 00:03:37;;;;;;;;;;;6.80;99.90;;;;;;5073700;28;20015;-51
2022/04/19 00:06:04;;;;;;;;;;;6.70;99.90;;;;;;5082841;28;19989;-50
2022/04/19 00:08:32;;;;;;;;;;;6.60;99.90;;;;;;5079680;28;19989;-49
2022/04/19 00:10:59;;;;;;;;;;;6.50;99.90;;;;;;5085359;28;19978;-49
2022/04/19 00:13:28;;;;;;;;;;;6.40;99.90;;;;;;5083821;28;19928;-50
2022/04/19 00:15:55;;;;;;;;;;;6.50;99.90;;;;;;5075861;28;19931;-48
2022/04/19 00:18:22;;;;;;;;;;;6.50;99.90;;;;;;5093652;28;19928;-49
2022/04/19 00:20:50;;;;;;;;;;;6.40;99.90;;;;;;5069697;28;19935;-51
2022/04/19 00:23:16;;;;;;;;;;;6.40;99.90;;;;;;5083863;28;19924;-49
2022/04/19 00:25:46;;;;;;;;;;;6.30;99.90;;;;;;5093550;28;19924;-49
2022/04/19 00:28:13;;;;;;;;;;;6.30;99.90;;;;;;5093826;28;19924;-49
2022/04/19 00:30:40;;;;;;;;;;;6.20;99.90;;;;;;5083572;28;19932;-50
2022/04/19 00:33:07;;;;;;;;;;;6.20;99.90;;;;;;5071440;28;19928;-49
2022/04/19 00:35:35;;;;;;;;;;;6.20;99.90;;;;;;5063974;28;19972;-49
2022/04/19 00:38:01;;;;;;;;;;;6.20;99.90;;;;;;5074752;28;19989;-49
2022/04/19 00:40:28;;;;;;;;;;;6.10;99.90;;;;;;5069660;28;19959;-49
2022/04/19 00:42:57;;;;;;;;;;;6.10;99.90;;;;;;5059673;28;19979;-49
2022/04/19 00:45:24;;;;;;;;;;;6.20;99.90;;;;;;5084639;28;19935;-50
2022/04/19 00:47:51;;;;;;;;;;;6.20;99.90;;;;;;5082288;28;20000;-49
2022/04/19 00:50:18;;;;;;;;;;;6.20;99.90;;;;;;5081183;28;19978;-49
2022/04/19 00:52:45;;;;;;;;;;;6.10;99.90;;;;;;5073165;28;19925;-49
2022/04/19 00:55:12;;;;;;;;;;;6.10;99.90;;;;;;5080221;28;19924;-49
2022/04/19 00:57:39;;;;;;;;;;;6.10;99.90;;;;;;5078031;28;20470;-48
2022/04/19 01:00:10;;;;;;;;;;;6.00;99.90;;;;;;5084168;28;20065;-51
2022/04/19 01:02:37;;;;;;;;;;;5.90;99.90;;;;;;5084456;28;20301;-50
2022/04/19 01:05:04;;;;;;;;;;;5.90;99.90;;;;;;5073107;28;19978;-49
2022/04/19 01:07:31;;;;;;;;;;;5.90;99.90;;;;;;5073310;28;19929;-49
2022/04/19 01:09:58;;;;;;;;;;;5.90;99.90;;;;;;5089853;28;19924;-49
2022/04/19 01:15:11;;;;;;;;;;;5.90;99.90;;;;;;5068778;28;20409;-51
2022/04/19 01:17:39;;;;;;;;;;;5.80;99.90;;;;;;5072494;28;20007;-49
2022/04/19 01:20:07;;;;;;;;;;;5.90;99.90;;;;;;5075147;28;19931;-49
2022/04/19 01:22:35;;;;;;;;;;;5.80;99.90;;;;;;5083896;28;19928;-50
2022/04/19 01:25:02;;;;;;;;;;;5.90;99.90;;;;;;5074934;28;19974;-49
2022/04/19 01:27:29;;;;;;;;;;;6.10;99.90;;;;;;5084088;28;19928;-51
2022/04/19 01:30:01;;;;;;;;;;;6.30;99.90;;;;;;5092486;28;19930;-49
2022/04/19 01:32:27;;;;;;;;;;;6.30;99.90;;;;;;5092147;28;19924;-49
2022/04/19 01:35:05;;;;;;;;;;;6.30;99.90;;;;;;5071407;28;19924;-49
2022/04/19 01:37:33;;;;;;;;;;;6.40;99.90;;;;;;5078840;28;19928;-49
2022/04/19 01:40:20;;;;;;;;;;;6.40;99.90;;;;;;5082631;28;19997;-49
2022/04/19 01:42:47;;;;;;;;;;;6.20;99.90;;;;;;5083156;28;20390;-49
2022/04/19 01:45:14;;;;;;;;;;;6.20;99.90;;;;;;5075516;28;19928;-50
2022/04/19 01:47:41;;;;;;;;;;;6.20;99.90;;;;;;5073598;28;19986;-49
2022/04/19 01:50:09;;;;;;;;;;;6.30;99.90;;;;;;5077897;28;19924;-49
2022/04/19 01:52:36;;;;;;;;;;;6.10;99.90;;;;;;5076104;28;20401;-49
2022/04/19 01:55:05;;;;;;;;;;;6.10;99.90;;;;;;5072117;28;19986;-49
2022/04/19 01:57:33;;;;;;;;;;;6.00;99.90;;;;;;5070238;28;19936;-50
2022/04/19 02:00:00;;;;;;;;;;;5.90;99.90;;;;;;5075260;28;19924;-50
2022/04/19 02:02:27;;;;;;;;;;;5.80;99.90;;;;;;5070845;28;19925;-50
2022/04/19 02:04:53;;;;;;;;;;;5.70;99.90;;;;;;5081489;28;19924;-51
2022/04/19 02:13:28;;;;;;;;;;;5.70;99.90;;;;;;5076887;28;20297;-48
2022/04/19 02:15:54;;;;;;;;;;;5.50;99.90;;;;;;5056629;28;19924;-49
2022/04/19 02:18:21;;;;;;;;;;;5.40;99.90;;;;;;5075413;28;19928;-49
2022/04/19 02:29:59;;;;;;;;;;;5.20;99.90;;;;;;5076931;28;19935;-50
2022/04/19 02:32:27;;;;;;;;;;;5.30;99.90;;;;;;5082155;28;19925;-50
2022/04/19 02:34:54;;;;;;;;;;;5.60;99.90;;;;;;5075160;28;19924;-49
2022/04/19 02:37:21;;;;;;;;;;;5.80;99.90;;;;;;5077194;28;19956;-49
2022/04/19 02:39:47;;;;;;;;;;;5.70;99.90;;;;;;5078335;28;19928;-48
2022/04/19 02:42:14;;;;;;;;;;;5.50;99.90;;;;;;5089021;28;19924;-51
2022/04/19 02:44:41;;;;;;;;;;;5.30;99.90;;;;;;5075681;28;19924;-49
2022/04/19 02:47:09;;;;;;;;;;;5.20;99.90;;;;;;5084582;28;19924;-49
2022/04/19 02:49:36;;;;;;;;;;;5.00;99.90;;;;;;5072028;28;20344;-51
2022/04/19 02:52:03;;;;;;;;;;;5.00;99.90;;;;;;5074119;28;20321;-49
2022/04/19 02:54:30;;;;;;;;;;;5.00;99.90;;;;;;5074981;28;19936;-51
2022/04/19 02:56:57;;;;;;;;;;;5.00;99.90;;;;;;5080520;28;19924;-53
2022/04/19 02:59:25;;;;;;;;;;;4.90;99.90;;;;;;5071286;28;19939;-50
2022/04/19 03:01:51;;;;;;;;;;;4.90;99.90;;;;;;5084528;28;19992;-50
2022/04/19 03:04:20;;;;;;;;;;;4.90;99.90;;;;;;5069457;28;20739;-49
2022/04/19 03:06:47;;;;;;;;;;;5.00;99.90;;;;;;5065891;28;19924;-50
2022/04/19 03:09:14;;;;;;;;;;;5.00;99.90;;;;;;5071834;28;19977;-49
2022/04/19 03:11:40;;;;;;;;;;;5.10;99.90;;;;;;5082183;28;19977;-49
2022/04/19 03:14:07;;;;;;;;;;;5.10;99.90;;;;;;5074712;28;19924;-51
2022/04/19 03:16:34;;;;;;;;;;;5.20;99.90;;;;;;5058834;28;20272;-49
2022/04/19 03:19:01;;;;;;;;;;;5.30;99.90;;;;;;5059346;28;19986;-51
2022/04/19 03:21:32;;;;;;;;;;;5.20;99.90;;;;;;5080384;28;20386;-50
2022/04/19 03:29:28;;;;;;;;;;;5.10;99.90;;;;;;5070174;28;19927;-50
2022/04/19 03:31:55;;;;;;;;;;;5.10;99.90;;;;;;5072233;28;19981;-49
2022/04/19 03:34:22;;;;;;;;;;;5.20;99.90;;;;;;5105643;22;19924;-58
2022/04/19 03:36:51;;;;;;;;;;;5.20;99.90;;;;;;5112862;28;19931;-58
2022/04/19 03:39:17;;;;;;;;;;;5.10;99.90;;;;;;5107454;28;19963;-59
2022/04/19 03:41:44;;;;;;;;;;;5.10;99.90;;;;;;5105955;28;19924;-59
2022/04/19 03:44:11;;;;;;;;;;;5.00;99.90;;;;;;5100101;28;19985;-58
2022/04/19 03:47:07;;;;;;;;;;;4.90;99.90;;;;;;5095254;28;19946;-59
2022/04/19 03:49:26;;;;;;;;;;;4.80;99.90;;;;;;5088413;28;20311;-58
2022/04/19 03:51:54;;;;;;;;;;;4.80;99.90;;;;;;5087012;28;20065;-59
2022/04/19 03:54:21;;;;;;;;;;;4.80;99.90;;;;;;5099668;28;20469;-59
2022/04/19 03:56:47;;;;;;;;;;;4.80;99.90;;;;;;5087605;28;19924;-59
2022/04/19 04:11:32;;;;;;;;;;;4.60;99.90;;;;;;5076830;28;19923;-59
2022/04/19 04:13:58;;;;;;;;;;;4.70;99.90;;;;;;5091512;28;19967;-58
2022/04/19 04:16:25;;;;;;;;;;;4.90;99.90;;;;;;5078639;28;19971;-59
2022/04/19 04:18:52;;;;;;;;;;;4.90;99.90;;;;;;5089410;28;20067;-59
2022/04/19 04:21:19;;;;;;;;;;;4.90;99.90;;;;;;5082969;28;20383;-59
2022/04/19 04:23:46;;;;;;;;;;;4.80;99.90;;;;;;5076863;28;19981;-59
2022/04/19 04:26:12;;;;;;;;;;;4.90;99.90;;;;;;5091696;28;19924;-60
2022/04/19 04:28:40;;;;;;;;;;;5.00;99.90;;;;;;5078151;28;19928;-59
2022/04/19 04:31:07;;;;;;;;;;;5.00;99.90;;;;;;5086278;28;19977;-60
2022/04/19 04:33:34;;;;;;;;;;;4.90;99.90;;;;;;5078709;28;19928;-59
2022/04/19 04:36:00;;;;;;;;;;;4.90;99.90;;;;;;5086528;28;19977;-61
2022/04/19 04:38:28;;;;;;;;;;;4.90;99.90;;;;;;5080726;28;20031;-59
2022/04/19 04:40:54;;;;;;;;;;;4.90;99.90;;;;;;5089710;28;19924;-59
2022/04/19 04:43:21;;;;;;;;;;;4.90;99.90;;;;;;5094015;28;19924;-59
2022/04/19 04:49:35;;;;;;;;;;;5.00;99.90;;;;;;5087261;28;20402;-59
2022/04/19 04:51:20;;;;;;;;;;;5.00;99.90;;;;;;5085193;28;19926;-60
2022/04/19 04:53:47;;;;;;;;;;;5.10;99.90;;;;;;5087353;28;19944;-59
2022/04/19 04:56:14;;;;;;;;;;;5.00;99.90;;;;;;5076683;28;19925;-59
2022/04/19 04:58:41;;;;;;;;;;;5.00;99.90;;;;;;5093164;28;19912;-59
2022/04/19 05:01:09;;;;;;;;;;;5.00;99.90;;;;;;5092491;28;20435;-59
2022/04/19 05:03:36;;;;;;;;;;;5.00;99.90;;;;;;5091210;28;19924;-59
2022/04/19 05:06:03;;;;;;;;;;;5.10;99.90;;;;;;5082412;28;19924;-59
2022/04/19 05:08:30;;;;;;;;;;;5.30;99.90;;;;;;5082655;28;20029;-60
2022/04/19 05:10:57;;;;;;;;;;;5.40;99.90;;;;;;5083297;28;20313;-60
2022/04/19 05:13:23;;;;;;;;;;;5.60;99.90;;;;;;5087962;28;19925;-60
2022/04/19 05:15:50;;;;;;;;;;;5.90;99.90;;;;;;5083243;28;19924;-59
2022/04/19 05:18:19;;;;;;;;;;;6.20;99.90;;;;;;5083669;28;19977;-60
2022/04/19 05:20:46;;;;;;;;;;;6.30;99.90;;;;;;5073869;28;19929;-60
2022/04/19 05:23:13;;;;;;;;;;;6.40;99.90;;;;;;5071936;28;19985;-59
2022/04/19 05:25:39;;;;;;;;;;;7.10;99.90;;;;;;5073326;28;19986;-61
2022/04/19 05:28:06;;;;;;;;;;;8.30;99.90;;;;;;5088504;28;20338;-61
2022/04/19 05:30:33;;;;;;;;;;;9.50;99.90;;;;;;5078494;28;19924;-60
2022/04/19 05:33:00;;;;;;;;;;;10.50;99.90;;;;;;5097335;28;19930;-60
2022/04/19 05:35:28;;;;;;;;;;;10.90;99.90;;;;;;5097239;28;19993;-60
2022/04/19 05:37:55;;;;;;;;;;;12.10;99.90;;;;;;5102338;28;19924;-60
2022/04/19 05:40:22;;;;;;;;;;;14.40;99.90;;;;;;5096683;28;20334;-62
2022/04/19 05:42:49;;;;;;;;;;;16.40;99.40;;;;;;5091495;28;19928;-60
2022/04/19 05:45:16;;;;;;;;;;;18.20;94.70;;;;;;5090425;28;20017;-60
2022/04/19 05:47:43;;;;;;;;;;;19.60;91.00;;;;;;5086696;28;19924;-62
2022/04/19 05:50:09;;;;;;;;;;;20.50;85.90;;;;;;5089759;28;20018;-61
2022/04/19 05:52:38;;;;;;;;;;;21.20;81.10;;;;;;5085564;28;19927;-65
2022/04/19 05:55:05;;;;;;;;;;;21.50;78.50;;;;;;5086678;28;19935;-61
2022/04/19 05:57:32;;;;;;;;;;;22.00;77.20;;;;;;5081452;28;19928;-60
2022/04/19 05:59:59;;;;;;;;;;;22.70;74.30;;;;;;5084375;28;20408;-61
2022/04/19 06:05:10;;;;;;;;;;;24.10;66.60;;;;;;5086250;28;20036;-61
2022/04/19 06:07:44;;;;;;;;;;;24.70;64.70;;;;;;5092842;28;19928;-62
2022/04/19 06:10:11;;;;;;;;;;;25.20;62.20;;;;;;5092980;28;19924;-61
2022/04/19 06:12:38;;;;;;;;;;;25.30;62.70;;;;;;5083971;28;19928;-61
2022/04/19 06:15:05;;;;;;;;;;;25.60;63.50;;;;;;5085674;28;19924;-62
2022/04/19 06:17:32;;;;;;;;;;;26.60;60.00;;;;;;5088558;28;19924;-61
2022/04/19 06:19:59;;;;;;;;;;;26.90;58.50;;;;;;5084821;28;19977;-62
2022/04/19 06:22:26;;;;;;;;;;;26.70;58.80;;;;;;5082915;28;19924;-61
2022/04/19 06:24:55;;;;;;;;;;;27.20;59.80;;;;;;5082420;28;19935;-62
2022/04/19 06:27:21;;;;;;;;;;;27.20;57.70;;;;;;5087420;28;19925;-63
2022/04/19 06:29:50;;;;;;;;;;;27.70;57.20;;;;;;5086910;28;21657;-63
2022/04/19 06:32:17;;;;;;;;;;;28.50;56.10;;;;;;5082058;27;19925;-63
2022/04/19 06:34:44;;;;;;;;;;;28.60;55.50;;;;;;5088152;28;19990;-63
2022/04/19 06:37:11;;;;;;;;;;;27.60;54.40;;;;;;5089268;28;19993;-64
2022/04/19 06:39:37;;;;;;;;;;;26.40;56.70;;;;;;5083626;28;20797;-63
2022/04/19 06:42:06;;;;;;;;;;;25.40;58.50;;;;;;5093943;28;19935;-61
2022/04/19 06:44:32;;;;;;;;;;;25.40;60.00;;;;;;5083241;28;20344;-61
2022/04/19 06:46:59;;;;;;;;;;;24.60;59.60;;;;;;5083408;28;19928;-61
2022/04/19 06:49:26;;;;;;;;;;;25.10;59.70;;;;;;5085863;28;19932;-62
2022/04/19 06:51:53;;;;;;;;;;;26.20;58.30;;;;;;5087308;28;20406;-62
2022/04/19 06:54:20;;;;;;;;;;;26.90;57.40;;;;;;5085219;28;19923;-62
2022/04/19 06:56:47;;;;;;;;;;;28.50;55.50;;;;;;5090174;28;19978;-61
2022/04/19 06:59:15;;;;;;;;;;;28.50;55.70;;;;;;5088735;28;19982;-61
2022/04/19 07:01:43;;;;;;;;;;;27.70;56.80;;;;;;5085470;28;19985;-61
2022/04/19 07:04:10;;;;;;;;;;;27.50;57.00;;;;;;5076155;28;20019;-61
2022/04/19 07:06:37;;;;;;;;;;;28.00;56.50;;;;;;5077072;28;19929;-62
2022/04/19 07:09:04;;;;;;;;;;;27.90;57.60;;;;;;5089182;28;19942;-64
2022/04/19 07:11:31;;;;;;;;;;;28.60;55.40;;;;;;5080538;28;20364;-62
2022/04/19 07:13:58;;;;;;;;;;;28.60;56.40;;;;;;5073222;28;20497;-62
2022/04/19 07:16:28;;;;;;;;;;;27.60;56.80;;;;;;5073170;28;19935;-62
2022/04/19 07:18:55;;;;;;;;;;;26.90;56.90;;;;;;5084092;28;19930;-63
2022/04/19 07:26:50;;;;;;;;;;;26.50;58.00;;;;;;5093787;28;20069;-63
2022/04/19 07:29:18;;;;;;;;;;;27.10;57.80;;;;;;5093940;28;19932;-63
2022/04/19 07:31:47;;;;;;;;;;;26.80;57.90;;;;;;5093584;28;19924;-62
2022/04/19 07:34:14;;;;;;;;;;;27.40;56.20;;;;;;5093954;28;20330;-63
2022/04/19 07:36:41;;;;;;;;;;;28.50;55.20;;;;;;5086969;28;19931;-64
2022/04/19 07:39:09;;;;;;;;;;;28.50;54.10;;;;;;5081627;28;20360;-63
2022/04/19 07:41:37;;;;;;;;;;;28.10;54.00;;;;;;5086580;28;20311;-62
2022/04/19 07:44:04;;;;;;;;;;;27.70;54.30;;;;;;5086741;28;19924;-62
2022/04/19 07:46:31;;;;;;;;;;;28.60;53.40;;;;;;5077695;28;19928;-61
2022/04/19 07:48:59;;;;;;;;;;;29.10;52.10;;;;;;5090718;28;20347;-63
2022/04/19 07:51:26;;;;;;;;;;;28.40;53.20;;;;;;5081429;28;19924;-62
2022/04/19 07:53:53;;;;;;;;;;;28.80;52.30;;;;;;5092231;28;19927;-62
2022/04/19 07:56:20;;;;;;;;;;;30.00;51.20;;;;;;5073762;28;19924;-63
2022/04/19 07:58:47;;;;;;;;;;;30.60;48.20;;;;;;5093247;28;19936;-63
2022/04/19 08:01:14;;;;;;;;;;;30.50;50.00;;;;;;5089407;28;19924;-62
2022/04/19 08:03:41;;;;;;;;;;;30.20;51.90;;;;;;5081322;28;19924;-63
2022/04/19 08:06:10;;;;;;;;;;;29.90;51.10;;;;;;5071438;28;20350;-63
2022/04/19 08:08:37;;;;;;;;;;;30.50;51.90;;;;;;5090760;28;19928;-62
2022/04/19 08:11:05;;;;;;;;;;;31.40;48.90;;;;;;5081694;28;19943;-62
2022/04/19 08:13:31;;;;;;;;;;;31.80;48.90;;;;;;5087723;28;19924;-62
2022/04/19 08:15:58;;;;;;;;;;;31.50;48.10;;;;;;5078890;28;20378;-63
2022/04/19 08:18:25;;;;;;;;;;;30.80;48.20;;;;;;5082320;28;20313;-62
2022/04/19 08:20:52;;;;;;;;;;;31.10;48.90;;;;;;5080429;28;19924;-63
2022/04/19 08:23:20;;;;;;;;;;;31.20;49.50;;;;;;5082827;28;20066;-62
2022/04/19 08:25:48;;;;;;;;;;;31.00;47.90;;;;;;5086674;28;19924;-62
2022/04/19 08:28:15;;;;;;;;;;;30.00;49.70;;;;;;5079987;28;19924;-63
2022/04/19 08:30:42;;;;;;;;;;;30.40;50.50;;;;;;5080727;28;19931;-62
2022/04/19 08:33:09;;;;;;;;;;;30.60;48.90;;;;;;5081297;28;19931;-63
2022/04/19 08:35:36;;;;;;;;;;;30.40;47.90;;;;;;5081815;28;19932;-62
2022/04/19 08:38:02;;;;;;;;;;;29.80;48.00;;;;;;5083332;28;19929;-62
2022/04/19 08:40:32;;;;;;;;;;;30.00;48.90;;;;;;5086805;28;19935;-62
2022/04/19 08:43:00;;;;;;;;;;;29.40;50.30;;;;;;5081830;28;19932;-63
2022/04/19 08:45:28;;;;;;;;;;;30.20;49.20;;;;;;5091037;28;19924;-64
2022/04/19 08:47:57;;;;;;;;;;;30.00;49.30;;;;;;5089781;28;20019;-64
2022/04/19 08:50:23;;;;;;;;;;;28.30;52.20;;;;;;5079765;28;20106;-63
2022/04/19 08:57:29;;;;;;;;;;;28.30;52.20;;;;;;5074987;28;19928;-63
2022/04/19 08:58:29;;;;;;;;;;;26.00;55.90;;;;;;5052454;28;20043;-63
2022/04/19 09:00:56;;;;;;;;;;;27.60;52.30;;;;;;5088234;28;19928;-63
2022/04/19 09:03:23;;;;;;;;;;;28.50;54.10;;;;;;5089016;28;19977;-63
2022/04/19 09:05:50;;;;;;;;;;;29.00;52.10;;;;;;5091858;28;19994;-63
2022/04/19 09:08:18;;;;;;;;;;;29.00;53.30;;;;;;5089510;28;20011;-64
2022/04/19 09:10:46;;;;;;;;;;;29.20;51.80;;;;;;5076843;28;19968;-63
2022/04/19 09:13:14;;;;;;;;;;;29.60;52.40;;;;;;5087075;28;19928;-64
2022/04/19 09:15:42;;;;;;;;;;;29.30;52.20;;;;;;5088227;28;20297;-64
2022/04/19 09:18:13;;;;;;;;;;;29.50;52.60;;;;;;5082447;28;19990;-63
2022/04/19 09:20:40;;;;;;;;;;;29.40;52.90;;;;;;5083417;28;19924;-64
2022/04/19 09:23:08;;;;;;;;;;;29.50;55.00;;;;;;5075393;28;20291;-64
2022/04/19 09:25:35;;;;;;;;;;;29.10;52.50;;;;;;5071717;28;20633;-63
2022/04/19 09:28:05;;;;;;;;;;;30.10;51.50;;;;;;5082765;28;19939;-64
2022/04/19 09:30:34;;;;;;;;;;;30.90;50.50;;;;;;5092523;28;20286;-63
2022/04/19 09:33:02;;;;;;;;;;;29.90;50.20;;;;;;5091214;28;20293;-63
2022/04/19 09:35:29;;;;;;;;;;;29.60;50.50;;;;;;5079985;22;19979;-51
2022/04/19 09:37:56;;;;;;;;;;;29.60;50.80;;;;;;5048370;28;20023;-52
2022/04/19 09:40:27;;;;;;;;;;;29.60;51.00;;;;;;5052104;28;20011;-51
2022/04/19 09:42:55;;;;;;;;;;;29.70;54.70;;;;;;5051735;28;19924;-53
2022/04/19 09:45:23;;;;;;;;;;;29.80;52.30;;;;;;5051894;28;20039;-52
2022/04/19 09:47:50;;;;;;;;;;;28.70;51.70;;;;;;5051637;28;19933;-52
2022/04/19 09:50:17;;;;;;;;;;;27.80;53.30;;;;;;5051559;28;19925;-50
2022/04/19 09:52:48;;;;;;;;;;;28.60;52.80;;;;;;5051808;28;19929;-50
2022/04/19 09:55:16;;;;;;;;;;;28.80;53.40;;;;;;5050801;28;20436;-51
2022/04/19 09:57:43;;;;;;;;;;;29.00;52.50;;;;;;5054700;28;20302;-52
2022/04/19 10:00:12;;;;;;;;;;;28.60;53.30;;;;;;5055901;28;20016;-51
2022/04/19 10:08:19;;;;;;;;;;;29.60;50.80;;;;;;5055109;28;19928;-51
2022/04/19 10:10:47;;;;;;;;;;;28.80;50.80;;;;;;5055349;28;20379;-51
2022/04/19 10:13:14;;;;;;;;;;;28.90;51.20;;;;;;5051836;28;20365;-51
2022/04/19 10:15:42;;;;;;;;;;;29.10;50.80;;;;;;5053727;28;19925;-50
2022/04/19 10:18:12;;;;;;;;;;;28.60;50.60;;;;;;5055244;28;19925;-51
2022/04/19 10:20:41;;;;;;;;;;;28.00;50.30;;;;;;5054741;28;19924;-52
2022/04/19 10:23:09;;;;;;;;;;;27.00;52.20;;;;;;5054903;28;20280;-51
2022/04/19 10:25:43;;;;;;;;;;;26.40;54.00;;;;;;5054975;28;20015;-51
2022/04/19 10:28:10;;;;;;;;;;;26.70;55.30;;;;;;5054985;28;19948;-51
2022/04/19 10:30:38;;;;;;;;;;;26.60;53.40;;;;;;5045061;28;19925;-50
2022/04/19 10:33:19;;;;;;;;;;;26.30;54.30;;;;;;5053528;28;19928;-50
2022/04/19 10:36:01;;;;;;;;;;;25.60;53.90;;;;;;5053176;28;19978;-51
2022/04/19 10:38:29;;;;;;;;;;;25.10;56.10;;;;;;5048335;28;19925;-51
2022/04/19 10:40:56;;;;;;;;;;;25.50;56.80;;;;;;5054420;28;20444;-51
2022/04/19 10:43:23;;;;;;;;;;;25.30;53.50;;;;;;5054385;28;19936;-51
2022/04/19 10:45:51;;;;;;;;;;;25.20;54.00;;;;;;5046647;28;19973;-51
2022/04/19 10:48:17;;;;;;;;;;;25.70;51.80;;;;;;5034171;28;19929;-51
2022/04/19 10:50:50;;;;;;;;;;;25.80;48.20;;;;;;5041083;28;19939;-51
2022/04/19 10:53:17;;;;;;;;;;;24.30;50.70;;;;;;5038618;28;19929;-52
2022/04/19 10:56:01;;;;;;;;;;;23.50;50.50;;;;;;5052671;28;19928;-50
2022/04/19 10:58:38;;;;;;;;;;;22.90;51.80;;;;;;5052556;28;19983;-52
2022/04/19 11:01:05;;;;;;;;;;;21.60;56.00;;;;;;5042653;28;19931;-50
2022/04/19 11:03:45;;;;;;;;;;;21.20;59.40;;;;;;5036952;28;19932;-51
2022/04/19 11:06:28;;;;;;;;;;;21.10;56.00;;;;;;5050663;28;19925;-51
2022/04/19 11:09:06;;;;;;;;;;;21.10;58.60;;;;;;5054435;28;19928;-51
2022/04/19 11:11:45;;;;;;;;;;;20.70;56.90;;;;;;5053815;28;20004;-51
2022/04/19 11:14:20;;;;;;;;;;;20.50;54.30;;;;;;5053945;28;20349;-51
2022/04/19 11:16:50;;;;;;;;;;;20.50;56.20;;;;;;5054000;28;19925;-49
2022/04/19 11:19:19;;;;;;;;;;;19.90;58.80;;;;;;5053769;28;19924;-49
2022/04/19 11:21:53;;;;;;;;;;;19.40;59.70;;;;;;5053959;28;19924;-50
2022/04/19 11:24:38;;;;;;;;;;;19.80;58.30;;;;;;5054315;28;19932;-49
2022/04/19 11:27:07;;;;;;;;;;;20.00;58.30;;;;;;5053925;28;19925;-50
2022/04/19 11:29:46;;;;;;;;;;;19.60;59.00;;;;;;5053930;28;20027;-50
2022/04/19 11:32:13;;;;;;;;;;;19.20;59.50;;;;;;5051901;28;20047;-49
2022/04/19 11:34:40;;;;;;;;;;;19.10;62.30;;;;;;5039846;28;20374;-49
2022/04/19 11:37:07;;;;;;;;;;;18.90;59.70;;;;;;5033471;28;19952;-51
2022/04/19 11:47:58;;;;;;;;;;;18.40;58.50;;;;;;5033682;28;19967;-50
2022/04/19 11:50:25;;;;;;;;;;;18.50;60.60;;;;;;5033669;28;19929;-51
2022/04/19 11:52:52;;;;;;;;;;;18.70;56.80;;;;;;5042367;28;20011;-50
2022/04/19 11:55:23;;;;;;;;;;;18.50;59.20;;;;;;5053227;28;20386;-50
2022/04/19 11:58:03;;;;;;;;;;;18.40;57.40;;;;;;5053561;28;19925;-50
2022/04/19 12:00:29;;;;;;;;;;;19.00;57.30;;;;;;5044608;28;19929;-50
2022/04/19 12:02:57;;;;;;;;;;;19.00;56.90;;;;;;5033365;28;20284;-50
2022/04/19 12:05:24;;;;;;;;;;;19.00;55.70;;;;;;5033824;28;19925;-50
2022/04/19 12:07:52;;;;;;;;;;;19.30;55.40;;;;;;5052086;28;19925;-50
2022/04/19 12:10:19;;;;;;;;;;;19.30;53.60;;;;;;5053291;28;19925;-51
2022/04/19 12:12:47;;;;;;;;;;;19.40;59.50;;;;;;5052822;28;19924;-51
2022/04/19 12:15:35;;;;;;;;;;;19.40;57.80;;;;;;5052976;28;20019;-51
2022/04/19 12:18:02;;;;;;;;;;;19.20;57.40;;;;;;5051950;28;19924;-50
2022/04/19 12:20:28;;;;;;;;;;;18.80;61.90;;;;;;5052859;28;19929;-50
2022/04/19 12:22:55;;;;;;;;;;;19.00;59.60;;;;;;5052456;28;19929;-51
2022/04/19 12:25:23;;;;;;;;;;;19.00;59.30;;;;;;5052948;28;19970;-50
2022/04/19 12:27:53;;;;;;;;;;;19.10;60.10;;;;;;5052586;28;20343;-50
2022/04/19 12:30:21;;;;;;;;;;;19.20;58.90;;;;;;5051543;28;19925;-50
2022/04/19 12:32:52;;;;;;;;;;;18.80;60.30;;;;;;5052609;28;19925;-50
2022/04/19 12:35:22;;;;;;;;;;;19.00;58.40;;;;;;5052106;28;19925;-50
2022/04/19 12:38:03;;;;;;;;;;;18.90;58.40;;;;;;5052589;28;20468;-51
2022/04/19 12:40:30;;;;;;;;;;;19.20;58.90;;;;;;5052576;28;20305;-50
2022/04/19 12:42:57;;;;;;;;;;;19.40;57.20;;;;;;5052160;28;19925;-50
2022/04/19 12:45:30;;;;;;;;;;;19.50;58.60;;;;;;5052134;28;20488;-50
2022/04/19 12:48:00;;;;;;;;;;;19.20;57.30;;;;;;5052428;28;19970;-50
2022/04/19 12:50:27;;;;;;;;;;;19.10;59.90;;;;;;5052641;28;19979;-51
2022/04/19 12:52:54;;;;;;;;;;;19.10;61.10;;;;;;5052587;28;19924;-50
2022/04/19 12:55:30;;;;;;;;;;;18.70;60.50;;;;;;5051840;28;20579;-50
2022/04/19 12:58:08;;;;;;;;;;;18.60;56.50;;;;;;5052473;28;19924;-51
2022/04/19 13:00:36;;;;;;;;;;;18.50;59.60;;;;;;5052153;28;19925;-50
2022/04/19 13:03:03;;;;;;;;;;;18.80;62.70;;;;;;5051977;28;20011;-50
2022/04/19 13:13:40;;;;;;;;;;;18.90;62.60;;;;;;5052478;28;19975;-50
2022/04/19 13:16:08;;;;;;;;;;;18.90;57.50;;;;;;5052363;28;19931;-49
2022/04/19 13:18:35;;;;;;;;;;;19.00;60.20;;;;;;5052302;28;19925;-51
2022/04/19 13:21:03;;;;;;;;;;;19.00;57.40;;;;;;5051948;28;19925;-52
2022/04/19 13:23:30;;;;;;;;;;;19.20;57.30;;;;;;5051874;28;20289;-50
2022/04/19 13:25:57;;;;;;;;;;;19.40;61.20;;;;;;5052444;28;19962;-50
2022/04/19 13:28:25;;;;;;;;;;;18.90;62.10;;;;;;5052375;28;20315;-51
2022/04/19 13:30:52;;;;;;;;;;;18.90;60.10;;;;;;5072025;28;19924;-52
2022/04/19 13:33:21;;;;;;;;;;;18.80;60.20;;;;;;5052839;28;20007;-50
2022/04/19 13:35:48;;;;;;;;;;;18.90;60.40;;;;;;5050668;28;19925;-51
2022/04/19 13:38:24;;;;;;;;;;;18.70;58.80;;;;;;5051756;28;19991;-52
2022/04/19 13:40:50;;;;;;;;;;;18.10;61.00;;;;;;5051934;28;20306;-50
2022/04/19 13:43:17;;;;;;;;;;;18.50;58.20;;;;;;5051613;28;20387;-49
2022/04/19 13:45:44;;;;;;;;;;;18.80;58.00;;;;;;5051514;28;20341;-50
2022/04/19 13:48:11;;;;;;;;;;;18.90;57.50;;;;;;5051721;28;19924;-50
2022/04/19 13:50:39;;;;;;;;;;;18.90;62.00;;;;;;5051758;28;19963;-50
2022/04/19 13:53:06;;;;;;;;;;;19.00;58.80;;;;;;5051734;28;20054;-50
2022/04/19 13:55:33;;;;;;;;;;;19.20;61.00;;;;;;5051584;28;20015;-51
2022/04/19 13:58:00;;;;;;;;;;;19.40;60.60;;;;;;5051693;28;19925;-50
2022/04/19 14:00:28;;;;;;;;;;;19.30;59.70;;;;;;5051811;28;19928;-50
2022/04/19 14:02:54;;;;;;;;;;;19.20;61.00;;;;;;5051513;28;19971;-50
2022/04/19 14:05:21;;;;;;;;;;;19.00;59.70;;;;;;5051364;28;19925;-52
2022/04/19 14:07:50;;;;;;;;;;;18.80;59.80;;;;;;5051632;28;19947;-50
2022/04/19 14:10:16;;;;;;;;;;;18.20;57.50;;;;;;5051206;28;19971;-49
2022/04/19 14:12:43;;;;;;;;;;;18.10;62.00;;;;;;5050973;28;19940;-51
2022/04/19 14:15:10;;;;;;;;;;;18.50;59.20;;;;;;5051509;28;20342;-50
2022/04/19 14:17:37;;;;;;;;;;;18.60;59.30;;;;;;5051403;28;20647;-50
2022/04/19 14:20:04;;;;;;;;;;;18.40;58.90;;;;;;5051044;28;19933;-50
2022/04/19 14:22:33;;;;;;;;;;;18.20;58.50;;;;;;5051264;28;19925;-50
2022/04/19 14:25:01;;;;;;;;;;;18.40;59.30;;;;;;5051563;28;19972;-52
2022/04/19 14:27:27;;;;;;;;;;;18.50;59.40;;;;;;5050751;28;19929;-51
2022/04/19 14:35:23;;;;;;;;;;;18.60;59.70;;;;;;5034445;28;19936;-49
2022/04/19 14:37:49;;;;;;;;;;;18.40;59.60;;;;;;5038878;28;19925;-49
2022/04/19 14:40:17;;;;;;;;;;;18.70;58.10;;;;;;5048721;28;19924;-51
2022/04/19 14:42:45;;;;;;;;;;;18.80;57.70;;;;;;5054332;28;19925;-50
2022/04/19 14:45:12;;;;;;;;;;;19.00;59.80;;;;;;5045649;28;19925;-50
2022/04/19 14:47:39;;;;;;;;;;;19.10;57.90;;;;;;5035487;28;19933;-49
2022/04/19 14:50:06;;;;;;;;;;;19.10;58.40;;;;;;5039520;28;20058;-51
2022/04/19 14:52:33;;;;;;;;;;;18.90;58.40;;;;;;5035096;28;19925;-50
2022/04/19 14:55:00;;;;;;;;;;;19.20;59.90;;;;;;5035060;28;20373;-51
2022/04/19 14:57:28;;;;;;;;;;;19.20;57.50;;;;;;5035255;28;19929;-49
2022/04/19 14:59:55;;;;;;;;;;;18.80;57.80;;;;;;5037844;28;19933;-50
2022/04/19 15:02:22;;;;;;;;;;;18.60;58.40;;;;;;5035011;28;19983;-49
2022/04/19 15:04:49;;;;;;;;;;;18.70;58.80;;;;;;5034881;28;20056;-50
2022/04/19 15:07:15;;;;;;;;;;;18.80;58.80;;;;;;5034960;28;20333;-51
2022/04/19 15:09:42;;;;;;;;;;;18.90;57.00;;;;;;5038163;28;19925;-50
2022/04/19 15:12:11;;;;;;;;;;;19.00;54.60;;;;;;5042747;28;19944;-51
2022/04/19 15:14:40;;;;;;;;;;;19.00;55.70;;;;;;5046931;28;20444;-50
2022/04/19 15:17:06;;;;;;;;;;;18.80;57.90;;;;;;5052785;28;19932;-52
2022/04/19 15:19:33;;;;;;;;;;;18.80;61.40;;;;;;5034080;28;20334;-49
2022/04/19 15:22:00;;;;;;;;;;;18.90;59.40;;;;;;5033483;28;20015;-49
2022/04/19 15:24:27;;;;;;;;;;;19.00;56.90;;;;;;5036854;28;19929;-51
2022/04/19 15:26:53;;;;;;;;;;;18.90;56.80;;;;;;5033699;28;19925;-48
2022/04/19 15:29:20;;;;;;;;;;;19.00;58.50;;;;;;5033800;28;19986;-49
2022/04/19 15:31:48;;;;;;;;;;;18.80;56.80;;;;;;5038352;28;20399;-48
2022/04/19 15:34:16;;;;;;;;;;;18.80;56.40;;;;;;5047714;28;20446;-49
2022/04/19 15:36:43;;;;;;;;;;;18.80;57.00;;;;;;5047009;28;20321;-48
2022/04/19 15:39:10;;;;;;;;;;;18.80;59.20;;;;;;5048031;28;19983;-49
2022/04/19 15:41:36;;;;;;;;;;;18.60;58.40;;;;;;5046558;28;19978;-48
2022/04/19 15:44:03;;;;;;;;;;;18.50;57.00;;;;;;5046644;28;19925;-48